Time;durP1;ratioP1;P1;durP2;ratioP2;P2;SDS_P1;SDS_P2;PMS_P1;PMS_P2;Temp;Humidity;BMP_temperature;BMP_pressure;BME280_temperature;BME280_humidity;BME280_pressure;Samples;Min_cycle;Max_cycle;Signal;HPM_P1;HPM_P2
2022/01/13 00:01:51;;;;;;;4.53;4.18;;;1.20;89.20;;;;;;5084237;28;20225;-69
2022/01/13 00:04:18;;;;;;;4.00;3.70;;;1.20;89.20;;;;;;5088729;28;20229;-69
2022/01/13 00:06:46;;;;;;;3.75;3.47;;;1.10;89.10;;;;;;5084837;28;20217;-69
2022/01/13 00:09:14;;;;;;;3.85;3.65;;;1.10;88.70;;;;;;5083924;28;20282;-69
2022/01/13 00:11:41;;;;;;;4.03;3.72;;;1.20;88.40;;;;;;5081648;28;20225;-69
2022/01/13 00:19:48;;;;;;;4.22;3.97;;;1.10;88.10;;;;;;5051093;28;20205;-69
2022/01/13 00:22:20;;;;;;;4.03;3.72;;;1.10;88.30;;;;;;5085017;28;20212;-69
2022/01/13 00:24:51;;;;;;;4.18;3.97;;;1.00;88.60;;;;;;5087441;28;20675;-70
2022/01/13 00:27:18;;;;;;;4.15;3.85;;;1.00;89.40;;;;;;5083005;28;20236;-68
2022/01/13 00:29:47;;;;;;;4.22;4.03;;;0.90;89.70;;;;;;5077353;28;20228;-68
2022/01/13 00:32:15;;;;;;;4.15;3.72;;;0.90;90.00;;;;;;5081308;28;20218;-70
2022/01/13 00:34:43;;;;;;;4.57;3.85;;;0.90;90.10;;;;;;5086910;28;20292;-68
2022/01/13 00:37:11;;;;;;;4.40;4.10;;;0.90;90.10;;;;;;5083056;28;20263;-69
2022/01/13 00:39:38;;;;;;;4.00;3.80;;;0.90;90.20;;;;;;5085782;28;20635;-69
2022/01/13 00:42:06;;;;;;;4.85;4.47;;;0.90;90.00;;;;;;5080850;28;20640;-68
2022/01/13 00:44:36;;;;;;;3.95;3.75;;;0.90;89.50;;;;;;5083334;28;20197;-68
2022/01/13 00:47:08;;;;;;;4.35;3.95;;;0.90;89.50;;;;;;5086243;28;20209;-69
2022/01/13 00:49:36;;;;;;;4.10;3.80;;;0.90;89.80;;;;;;5081856;28;21035;-70
2022/01/13 00:52:04;;;;;;;3.78;3.58;;;0.80;90.10;;;;;;5081819;28;20232;-69
2022/01/13 00:54:32;;;;;;;3.75;3.55;;;0.80;90.10;;;;;;5082831;28;20217;-68
2022/01/13 00:57:00;;;;;;;3.85;3.65;;;0.80;90.10;;;;;;5083869;28;20443;-70
2022/01/13 00:59:27;;;;;;;3.50;3.33;;;0.80;90.30;;;;;;5084971;28;20258;-71
2022/01/13 01:01:55;;;;;;;4.30;4.00;;;0.80;90.10;;;;;;5085830;28;20620;-69
2022/01/13 01:04:24;;;;;;;4.40;4.10;;;0.70;90.00;;;;;;5090233;28;20221;-69
2022/01/13 01:06:52;;;;;;;4.03;3.83;;;0.80;89.40;;;;;;5087242;28;20304;-68
2022/01/13 01:09:29;;;;;;;3.65;3.45;;;0.80;89.10;;;;;;5088444;28;20688;-69
2022/01/13 01:11:56;;;;;;;4.20;3.90;;;0.90;88.90;;;;;;5084362;28;20250;-70
2022/01/13 01:14:25;;;;;;;4.10;3.90;;;0.90;89.10;;;;;;5089231;28;20621;-69
2022/01/13 01:16:52;;;;;;;3.97;3.78;;;0.90;89.60;;;;;;5088958;28;20274;-68
2022/01/13 01:22:35;;;;;;;4.10;3.80;;;0.90;88.70;;;;;;5080123;28;20322;-73
2022/01/13 01:25:21;;;;;;;3.75;3.53;;;0.90;88.40;;;;;;5095011;28;20209;-73
2022/01/13 01:27:51;;;;;;;4.22;3.88;;;0.90;88.70;;;;;;5094524;28;20213;-73
2022/01/13 01:30:28;;;;;;;3.67;3.40;;;0.80;89.00;;;;;;5082240;28;20291;-72
2022/01/13 01:32:55;;;;;;;4.20;4.00;;;0.90;89.70;;;;;;5079861;28;20220;-73
2022/01/13 01:35:26;;;;;;;4.63;4.32;;;0.80;89.70;;;;;;5077918;28;20447;-73
2022/01/13 01:37:55;;;;;;;3.60;3.40;;;0.80;89.90;;;;;;5074369;28;20225;-73
2022/01/13 01:40:22;;;;;;;4.20;3.90;;;0.80;89.80;;;;;;5075272;28;20214;-73
2022/01/13 01:42:50;;;;;;;3.85;3.65;;;0.80;89.90;;;;;;5068236;28;20276;-72
2022/01/13 01:45:18;;;;;;;4.15;3.92;;;0.80;89.90;;;;;;5068149;28;20623;-73
2022/01/13 01:47:49;;;;;;;4.00;3.80;;;0.70;89.50;;;;;;5081165;28;20228;-73
2022/01/13 01:50:20;;;;;;;4.45;4.20;;;0.70;89.40;;;;;;5079041;28;20684;-75
2022/01/13 01:52:48;;;;;;;3.63;3.42;;;0.70;89.40;;;;;;5073483;28;20229;-72
2022/01/13 01:55:19;;;;;;;4.38;4.07;;;0.70;89.20;;;;;;5073087;28;20198;-73
2022/01/13 01:57:49;;;;;;;4.40;4.10;;;0.60;89.40;;;;;;5073035;28;20229;-72
2022/01/13 02:00:19;;;;;;;4.35;4.05;;;0.60;90.20;;;;;;5076091;28;20708;-73
2022/01/13 02:02:46;;;;;;;4.47;4.18;;;0.50;90.20;;;;;;5075378;28;20226;-73
2022/01/13 02:05:13;;;;;;;4.10;3.85;;;0.50;90.30;;;;;;5076422;28;20214;-73
2022/01/13 02:07:41;;;;;;;4.35;4.05;;;0.50;90.60;;;;;;5074676;28;20505;-73
2022/01/13 02:10:09;;;;;;;4.30;3.90;;;0.40;90.50;;;;;;5074142;28;20213;-73
2022/01/13 02:12:42;;;;;;;4.43;4.13;;;0.40;90.20;;;;;;5073388;28;20601;-72
2022/01/13 02:15:29;;;;;;;4.00;3.70;;;0.50;90.00;;;;;;5078724;28;20197;-73
2022/01/13 02:17:56;;;;;;;3.85;3.63;;;0.50;89.90;;;;;;5077446;28;20573;-73
2022/01/13 02:20:25;;;;;;;3.47;3.28;;;0.50;89.90;;;;;;5070686;28;20298;-72
2022/01/13 02:22:52;;;;;;;4.10;3.90;;;0.50;89.90;;;;;;5073236;28;20708;-74
2022/01/13 02:25:19;;;;;;;3.95;3.75;;;0.50;90.00;;;;;;5078607;28;20551;-73
2022/01/13 02:27:46;;;;;;;4.38;4.18;;;0.50;89.90;;;;;;5075921;28;20222;-72
2022/01/13 02:30:14;;;;;;;4.40;4.10;;;0.50;90.00;;;;;;5073955;28;20640;-73
2022/01/13 02:32:41;;;;;;;4.28;4.07;;;0.40;90.40;;;;;;5079352;28;20296;-75
2022/01/13 02:35:09;;;;;;;4.50;4.20;;;0.40;90.00;;;;;;5075585;28;20197;-74
2022/01/13 02:37:37;;;;;;;3.58;3.38;;;0.40;90.20;;;;;;5072031;28;20637;-73
2022/01/13 02:40:06;;;;;;;4.15;3.88;;;0.40;90.40;;;;;;5073186;28;20217;-74
2022/01/13 02:42:33;;;;;;;4.22;3.92;;;0.30;90.50;;;;;;5091626;28;20224;-74
2022/01/13 02:45:03;;;;;;;3.58;3.30;;;0.30;90.70;;;;;;5078994;28;20236;-74
2022/01/13 02:48:00;;;;;;;3.92;3.63;;;0.30;91.10;;;;;;5072983;28;20218;-74
2022/01/13 02:50:27;;;;;;;4.20;4.00;;;0.30;91.10;;;;;;5070887;28;20245;-74
2022/01/13 02:52:55;;;;;;;3.88;3.67;;;0.30;91.10;;;;;;5067584;28;20218;-74
2022/01/13 02:55:24;;;;;;;3.47;3.28;;;0.30;90.80;;;;;;5076248;28;20198;-73
2022/01/13 02:57:51;;;;;;;3.58;3.38;;;0.20;90.90;;;;;;5074434;28;20645;-73
2022/01/13 03:00:18;;;;;;;4.35;4.05;;;0.20;90.80;;;;;;5074059;28;20296;-73
2022/01/13 03:02:47;;;;;;;4.25;3.97;;;0.20;90.80;;;;;;5069855;28;20715;-74
2022/01/13 03:05:16;;;;;;;4.50;4.18;;;0.20;90.90;;;;;;5070884;28;20230;-74
2022/01/13 03:07:43;;;;;;;4.13;3.83;;;0.20;91.10;;;;;;5071488;28;20232;-74
2022/01/13 03:10:13;;;;;;;4.50;4.22;;;0.20;91.20;;;;;;5075993;28;20213;-74
2022/01/13 03:12:43;;;;;;;3.80;3.60;;;0.20;91.10;;;;;;5065991;28;20223;-74
2022/01/13 03:15:11;;;;;;;4.10;3.90;;;0.20;91.20;;;;;;5068311;28;20226;-73
2022/01/13 03:17:38;;;;;;;4.57;4.28;;;0.20;91.40;;;;;;5079631;28;20229;-74
2022/01/13 03:20:06;;;;;;;3.47;3.28;;;0.10;91.40;;;;;;5079439;28;20241;-74
2022/01/13 03:22:33;;;;;;;3.63;3.42;;;0.10;91.40;;;;;;5071939;28;20270;-73
2022/01/13 03:25:02;;;;;;;4.05;3.72;;;0.10;91.40;;;;;;5065760;28;20209;-73
2022/01/13 03:27:34;;;;;;;3.17;2.95;;;0.10;91.30;;;;;;5073752;28;20210;-73
2022/01/13 03:30:05;;;;;;;3.53;3.33;;;0.10;91.60;;;;;;5069208;28;20205;-73
2022/01/13 03:32:32;;;;;;;3.30;3.15;;;0.20;91.40;;;;;;5071593;28;20850;-72
2022/01/13 03:35:00;;;;;;;4.10;3.80;;;0.20;91.40;;;;;;5074085;28;20284;-74
2022/01/13 03:37:27;;;;;;;3.67;3.47;;;0.20;91.00;;;;;;5087149;28;20229;-74
2022/01/13 03:39:54;;;;;;;3.97;3.78;;;0.10;90.80;;;;;;5065093;28;20275;-75
2022/01/13 03:42:21;;;;;;;3.38;3.17;;;0.20;90.80;;;;;;5075385;28;20217;-74
2022/01/13 03:44:50;;;;;;;4.25;3.95;;;0.10;90.90;;;;;;5072735;28;20214;-73
2022/01/13 03:47:18;;;;;;;3.97;3.67;;;0.10;91.00;;;;;;5074323;28;20221;-74
2022/01/13 03:49:45;;;;;;;3.67;3.47;;;0.10;91.20;;;;;;5073022;28;20233;-73
2022/01/13 03:53:08;;;;;;;3.92;3.72;;;0.00;91.40;;;;;;5064377;28;20214;-74
2022/01/13 03:56:11;;;;;;;3.95;3.75;;;0.00;91.40;;;;;;5068180;28;20201;-73
2022/01/13 03:59:14;;;;;;;3.80;3.60;;;0.00;91.40;;;;;;5095834;28;20209;-74
2022/01/13 04:02:04;;;;;;;4.30;4.00;;;0.00;91.20;;;;;;5076286;28;20224;-74
2022/01/13 04:04:33;;;;;;;4.20;3.90;;;0.00;91.00;;;;;;5076407;28;20248;-73
2022/01/13 04:07:08;;;;;;;3.55;3.35;;;0.00;91.00;;;;;;5071861;28;20194;-73
2022/01/13 04:10:12;;;;;;;4.03;3.83;;;0.00;90.90;;;;;;5067683;28;20214;-73
2022/01/13 04:12:40;;;;;;;3.63;3.42;;;0.00;91.00;;;;;;5065575;28;20286;-74
2022/01/13 04:15:11;;;;;;;3.92;3.70;;;0.00;91.20;;;;;;5071898;28;20468;-73
2022/01/13 04:17:40;;;;;;;3.92;3.72;;;0.00;91.20;;;;;;5073517;28;20297;-74
2022/01/13 04:20:09;;;;;;;3.33;3.13;;;0.00;91.10;;;;;;5065973;28;20309;-73
2022/01/13 04:22:36;;;;;;;3.67;3.47;;;0.00;91.10;;;;;;5065495;28;20288;-73
2022/01/13 04:25:06;;;;;;;3.65;3.45;;;0.00;91.10;;;;;;5068472;28;20808;-73
2022/01/13 04:27:37;;;;;;;4.05;3.80;;;0.00;91.30;;;;;;5071830;28;20186;-74
2022/01/13 04:30:34;;;;;;;4.30;4.00;;;0.00;91.30;;;;;;5068637;28;20233;-75
2022/01/13 04:33:04;;;;;;;3.95;3.75;;;0.00;91.30;;;;;;5085061;28;20204;-74
2022/01/13 04:35:31;;;;;;;3.97;3.78;;;0.00;91.60;;;;;;5071420;28;20253;-74
2022/01/13 04:37:59;;;;;;;5.70;4.63;;;-0.10;91.60;;;;;;5073054;28;20222;-75
2022/01/13 04:40:27;;;;;;;4.10;3.90;;;-0.10;91.70;;;;;;5076405;28;20267;-74
2022/01/13 04:42:56;;;;;;;4.20;3.97;;;-0.10;91.60;;;;;;5078714;28;20209;-74
2022/01/13 04:45:25;;;;;;;3.75;3.55;;;-0.10;91.60;;;;;;5075738;28;20241;-74
2022/01/13 04:47:55;;;;;;;3.85;3.65;;;-0.20;91.70;;;;;;5076686;28;20600;-74
2022/01/13 04:50:24;;;;;;;3.83;3.53;;;-0.20;91.80;;;;;;5073888;28;20279;-74
2022/01/13 04:52:51;;;;;;;4.15;3.85;;;-0.20;91.80;;;;;;5073386;28;20202;-74
2022/01/13 04:55:24;;;;;;;4.43;4.13;;;-0.20;91.70;;;;;;5072751;28;20259;-74
2022/01/13 04:57:52;;;;;;;3.75;3.55;;;-0.20;91.90;;;;;;5080671;28;20312;-74
2022/01/13 05:00:20;;;;;;;4.15;3.85;;;-0.20;91.90;;;;;;5079082;28;20222;-74
2022/01/13 05:02:47;;;;;;;4.30;4.00;;;-0.20;91.80;;;;;;5077164;28;20201;-73
2022/01/13 05:05:14;;;;;;;4.45;4.15;;;-0.20;91.90;;;;;;5080629;28;20271;-73
2022/01/13 05:07:43;;;;;;;3.92;3.72;;;-0.30;92.00;;;;;;5072261;28;20206;-73
2022/01/13 05:10:10;;;;;;;4.47;4.18;;;-0.20;92.20;;;;;;5075428;28;20226;-74
2022/01/13 05:12:42;;;;;;;3.72;3.53;;;-0.20;92.10;;;;;;5070647;28;20195;-73
2022/01/13 05:15:14;;;;;;;3.50;3.30;;;-0.20;92.00;;;;;;5073830;28;20574;-73
2022/01/13 05:20:38;;;;;;;3.72;3.53;;;-0.30;92.00;;;;;;5071897;28;20221;-73
2022/01/13 05:23:07;;;;;;;3.75;3.55;;;-0.30;92.10;;;;;;5067295;28;20200;-73
2022/01/13 05:25:35;;;;;;;3.80;3.60;;;-0.30;92.20;;;;;;5081920;28;20253;-73
2022/01/13 05:28:02;;;;;;;3.63;3.42;;;-0.30;92.20;;;;;;5086810;28;20183;-73
2022/01/13 05:30:29;;;;;;;4.53;4.28;;;-0.30;92.30;;;;;;5080473;28;20275;-74
2022/01/13 05:32:56;;;;;;;4.05;3.80;;;-0.30;92.00;;;;;;5071335;28;20562;-73
2022/01/13 05:35:25;;;;;;;4.85;4.55;;;-0.40;92.10;;;;;;5072672;28;20226;-73
2022/01/13 05:37:52;;;;;;;4.45;4.22;;;-0.50;92.40;;;;;;5077936;28;20312;-73
2022/01/13 05:40:21;;;;;;;4.60;4.30;;;-0.60;92.70;;;;;;5071412;28;20770;-73
2022/01/13 05:42:48;;;;;;;4.38;4.15;;;-0.70;93.00;;;;;;5081784;28;20202;-73
2022/01/13 05:45:17;;;;;;;4.05;3.85;;;-0.70;93.00;;;;;;5078877;28;20226;-73
2022/01/13 05:47:46;;;;;;;4.28;3.97;;;-0.70;93.20;;;;;;5075924;28;20280;-73
2022/01/13 05:50:15;;;;;;;5.50;5.07;;;-0.70;93.10;;;;;;5073669;28;20214;-74
2022/01/13 05:52:42;;;;;;;4.85;4.45;;;-0.70;93.00;;;;;;5071541;28;20202;-74
2022/01/13 05:55:10;;;;;;;4.82;4.53;;;-0.70;92.70;;;;;;5071297;28;20220;-73
2022/01/13 05:57:39;;;;;;;5.50;4.97;;;-0.60;92.70;;;;;;5066723;28;20214;-73
2022/01/13 06:00:09;;;;;;;4.78;4.38;;;-0.60;92.80;;;;;;5068408;28;20797;-74
2022/01/13 06:02:36;;;;;;;5.25;4.85;;;-0.70;92.90;;;;;;5075047;28;20194;-73
2022/01/13 06:05:03;;;;;;;5.82;5.43;;;-0.70;93.00;;;;;;5078177;28;20226;-74
2022/01/13 06:07:30;;;;;;;5.15;4.75;;;-0.70;93.20;;;;;;5071441;28;20198;-73
2022/01/13 06:09:57;;;;;;;4.90;4.50;;;-0.70;93.20;;;;;;5077518;28;20225;-73
2022/01/13 06:12:32;;;;;;;5.03;4.63;;;-0.70;93.20;;;;;;5080262;28;20191;-73
2022/01/13 06:15:02;;;;;;;4.35;4.05;;;-0.70;93.30;;;;;;5079029;28;20808;-74
2022/01/13 06:17:29;;;;;;;5.00;4.60;;;-0.80;93.30;;;;;;5070157;28;20692;-73
2022/01/13 06:19:58;;;;;;;4.25;3.95;;;-0.70;93.30;;;;;;5088643;28;20218;-75
2022/01/13 06:22:25;;;;;;;4.03;3.75;;;-0.70;93.30;;;;;;5080249;28;20190;-73
2022/01/13 06:24:53;;;;;;;4.28;3.97;;;-0.80;93.30;;;;;;5067705;28;20210;-74
2022/01/13 06:27:21;;;;;;;5.25;4.95;;;-0.70;93.20;;;;;;5066916;28;20242;-74
2022/01/13 06:29:49;;;;;;;3.95;3.75;;;-0.70;92.90;;;;;;5066903;28;20600;-74
2022/01/13 06:32:17;;;;;;;4.32;4.03;;;-0.70;92.90;;;;;;5078586;28;20246;-73
2022/01/13 06:34:44;;;;;;;4.10;3.80;;;-0.70;92.90;;;;;;5086860;28;20673;-74
2022/01/13 06:37:12;;;;;;;3.78;3.47;;;-0.70;93.00;;;;;;5074551;28;20221;-74
2022/01/13 06:39:39;;;;;;;4.97;4.68;;;-0.70;93.20;;;;;;5073721;28;20229;-73
2022/01/13 06:42:07;;;;;;;5.00;4.68;;;-0.80;93.20;;;;;;5063865;28;20198;-75
2022/01/13 06:44:34;;;;;;;5.32;4.93;;;-0.80;93.40;;;;;;5068471;28;20225;-74
2022/01/13 06:47:02;;;;;;;5.28;4.97;;;-0.80;94.00;;;;;;5067856;28;20190;-74
2022/01/13 06:49:30;;;;;;;4.95;4.65;;;-0.80;94.60;;;;;;5079285;28;20233;-74
2022/01/13 06:51:58;;;;;;;4.13;3.83;;;-0.70;94.20;;;;;;5067151;28;20709;-75
2022/01/13 06:54:25;;;;;;;4.65;4.35;;;-0.70;94.00;;;;;;5075469;28;20229;-74
2022/01/13 06:56:53;;;;;;;4.15;3.95;;;-0.70;93.90;;;;;;5077984;28;20224;-74
2022/01/13 06:59:20;;;;;;;5.93;4.57;;;-0.70;93.70;;;;;;5078887;28;20247;-74
2022/01/13 07:01:48;;;;;;;4.32;4.03;;;-0.70;93.50;;;;;;5077505;28;20625;-74
2022/01/13 07:04:16;;;;;;;4.70;4.40;;;-0.70;93.40;;;;;;5080953;28;20257;-74
2022/01/13 07:06:46;;;;;;;5.07;4.78;;;-0.70;93.50;;;;;;5074108;28;20198;-74
2022/01/13 07:09:15;;;;;;;4.35;4.05;;;-0.70;93.60;;;;;;5076494;28;20189;-74
2022/01/13 07:11:42;;;;;;;4.68;4.28;;;-0.80;93.80;;;;;;5078326;28;20751;-74
2022/01/13 07:14:10;;;;;;;4.07;3.78;;;-0.80;94.00;;;;;;5089411;28;20177;-74
2022/01/13 07:16:38;;;;;;;4.57;4.28;;;-0.80;94.10;;;;;;5080403;28;20267;-74
2022/01/13 07:19:05;;;;;;;4.70;4.30;;;-0.80;94.00;;;;;;5078102;28;20638;-74
2022/01/13 07:21:33;;;;;;;4.32;4.03;;;-0.80;94.00;;;;;;5119500;22;20695;-67
2022/01/13 07:24:02;;;;;;;4.57;4.28;;;-0.80;94.20;;;;;;5075314;28;20202;-67
2022/01/13 07:26:29;;;;;;;4.00;3.80;;;-0.70;94.10;;;;;;5073882;28;20252;-68
2022/01/13 07:28:56;;;;;;;4.50;4.20;;;-0.70;94.00;;;;;;5075603;28;20198;-67
2022/01/13 07:31:23;;;;;;;5.05;4.55;;;-0.70;93.90;;;;;;5069163;28;20229;-67
2022/01/13 07:33:50;;;;;;;4.90;4.47;;;-0.60;93.90;;;;;;5052696;28;20210;-67
2022/01/13 07:36:17;;;;;;;5.43;4.22;;;-0.70;93.80;;;;;;5055139;28;20217;-67
2022/01/13 07:38:44;;;;;;;6.00;5.40;;;-0.70;93.60;;;;;;5056553;28;20219;-67
2022/01/13 07:41:13;;;;;;;6.50;5.82;;;-0.60;93.90;;;;;;5052704;28;20320;-68
2022/01/13 07:43:42;;;;;;;6.47;5.88;;;-0.60;94.10;;;;;;5053791;28;20611;-67
2022/01/13 07:46:09;;;;;;;7.53;5.72;;;-0.60;94.10;;;;;;5056129;28;20215;-67
2022/01/13 07:48:37;;;;;;;6.10;5.57;;;-0.50;95.70;;;;;;5058968;28;20186;-66
2022/01/13 07:51:04;;;;;;;5.47;5.00;;;-0.50;95.00;;;;;;5054540;28;20333;-67
2022/01/13 07:53:31;;;;;;;5.72;4.70;;;-0.40;94.00;;;;;;5055580;28;20259;-67
2022/01/13 07:55:58;;;;;;;5.63;5.22;;;-0.40;93.80;;;;;;5055571;28;20223;-66
2022/01/13 07:58:26;;;;;;;5.07;4.75;;;-0.40;93.80;;;;;;5050142;28;20214;-67
2022/01/13 08:00:53;;;;;;;5.43;5.03;;;-0.40;94.20;;;;;;5048639;28;20223;-67
2022/01/13 08:03:20;;;;;;;5.20;4.75;;;-0.40;94.20;;;;;;5044849;28;20268;-67
2022/01/13 08:05:47;;;;;;;4.88;4.47;;;-0.40;94.40;;;;;;5047189;28;20257;-67
2022/01/13 08:08:15;;;;;;;5.60;5.13;;;-0.40;94.70;;;;;;5051192;28;20192;-67
2022/01/13 08:10:42;;;;;;;5.47;5.07;;;-0.40;94.60;;;;;;5045252;28;20230;-67
2022/01/13 08:13:09;;;;;;;4.70;4.40;;;-0.30;94.60;;;;;;5049286;28;20200;-67
2022/01/13 08:15:37;;;;;;;4.65;4.35;;;-0.20;94.40;;;;;;5047860;28;20214;-68
2022/01/13 08:20:48;;;;;;;4.78;4.45;;;-0.20;94.20;;;;;;5043667;28;20221;-69
2022/01/13 08:23:15;;;;;;;4.75;4.35;;;-0.10;94.10;;;;;;5047822;28;20187;-68
2022/01/13 08:25:43;;;;;;;5.60;5.20;;;0.40;94.00;;;;;;5051065;28;20227;-67
2022/01/13 08:28:10;;;;;;;5.15;4.85;;;1.40;93.60;;;;;;5054426;28;20224;-68
2022/01/13 08:30:39;;;;;;;4.93;4.53;;;2.50;92.90;;;;;;5047834;28;20798;-67
2022/01/13 08:33:06;;;;;;;5.80;5.30;;;3.60;91.90;;;;;;5055024;28;20194;-67
2022/01/13 08:35:33;;;;;;;6.63;6.00;;;4.50;90.70;;;;;;5050267;28;20384;-68
2022/01/13 08:38:06;;;;;;;5.68;5.18;;;5.20;90.00;;;;;;5048841;28;20569;-68
2022/01/13 08:40:34;;;;;;;4.97;4.45;;;5.80;88.80;;;;;;5047663;28;20227;-68
2022/01/13 08:43:02;;;;;;;5.78;5.28;;;6.50;87.30;;;;;;5055284;28;20205;-67
2022/01/13 08:45:30;;;;;;;6.85;6.20;;;7.00;86.50;;;;;;5044640;28;20803;-67
2022/01/13 08:47:58;;;;;;;6.55;5.28;;;7.40;86.30;;;;;;5056884;28;20543;-68
2022/01/13 08:50:25;;;;;;;5.45;5.03;;;7.80;85.60;;;;;;5049817;28;20230;-68
2022/01/13 08:52:52;;;;;;;7.47;6.65;;;8.00;84.10;;;;;;5042733;28;20452;-67
2022/01/13 08:55:19;;;;;;;6.45;5.80;;;8.10;84.80;;;;;;5050422;28;20225;-68
2022/01/13 08:57:46;;;;;;;7.70;6.28;;;8.20;84.00;;;;;;5053124;28;20708;-68
2022/01/13 09:00:14;;;;;;;9.65;7.22;;;8.20;84.80;;;;;;5047678;28;20223;-68
2022/01/13 09:02:42;;;;;;;12.00;6.47;;;8.40;84.20;;;;;;5045409;28;20203;-68
2022/01/13 09:05:13;;;;;;;8.48;6.05;;;8.60;83.00;;;;;;5050407;28;20438;-68
2022/01/13 09:07:40;;;;;;;5.30;4.80;;;8.70;81.50;;;;;;5044008;28;20688;-68
2022/01/13 09:10:09;;;;;;;6.75;5.00;;;8.70;79.80;;;;;;5052799;28;20693;-69
2022/01/13 09:12:36;;;;;;;4.43;4.03;;;8.90;79.70;;;;;;5048111;28;20206;-69
2022/01/13 09:15:15;;;;;;;5.43;4.15;;;8.90;81.00;;;;;;5046996;28;20410;-69
2022/01/13 09:21:05;;;;;;;4.88;4.32;;;9.10;80.50;;;;;;5049269;28;20244;-68
2022/01/13 09:23:36;;;;;;;5.03;4.47;;;9.90;80.70;;;;;;5055707;28;20206;-67
2022/01/13 09:26:03;;;;;;;6.40;5.35;;;11.10;77.80;;;;;;5050504;28;20218;-68
2022/01/13 09:28:30;;;;;;;6.93;5.15;;;12.60;74.50;;;;;;5054964;28;20198;-69
2022/01/13 09:30:58;;;;;;;5.35;4.82;;;14.00;69.80;;;;;;5053344;28;20230;-69
2022/01/13 09:33:25;;;;;;;6.03;5.20;;;15.20;66.10;;;;;;5047496;28;20218;-69
2022/01/13 09:35:52;;;;;;;5.57;4.18;;;16.40;62.80;;;;;;5051688;28;20937;-68
2022/01/13 09:38:20;;;;;;;7.13;4.43;;;17.60;60.10;;;;;;5050655;28;20211;-71
2022/01/13 09:40:52;;;;;;;4.78;4.28;;;18.50;57.90;;;;;;5052478;28;20296;-69
2022/01/13 09:43:22;;;;;;;4.75;3.40;;;19.30;56.10;;;;;;5049222;28;20677;-70
2022/01/13 09:45:49;;;;;;;5.35;4.30;;;19.60;54.60;;;;;;5054274;28;20226;-69
2022/01/13 09:48:17;;;;;;;12.32;4.80;;;19.70;54.10;;;;;;5050279;28;20245;-68
2022/01/13 09:50:45;;;;;;;6.43;4.35;;;19.40;54.20;;;;;;5046313;28;20227;-68
2022/01/13 09:53:13;;;;;;;4.47;3.72;;;19.40;54.20;;;;;;5049850;28;20202;-68
2022/01/13 09:55:42;;;;;;;4.72;4.22;;;19.60;53.30;;;;;;5047523;28;20789;-69
2022/01/13 09:58:11;;;;;;;6.60;3.90;;;19.70;52.80;;;;;;5052970;28;20701;-68
2022/01/13 10:00:40;;;;;;;4.40;4.10;;;19.20;53.10;;;;;;5047139;28;20281;-69
2022/01/13 10:03:11;;;;;;;4.70;3.58;;;18.20;53.20;;;;;;5050488;28;20187;-68
2022/01/13 10:05:48;;;;;;;4.85;4.35;;;16.50;53.60;;;;;;5054716;28;20240;-69
2022/01/13 10:08:15;;;;;;;6.97;5.07;;;14.60;58.70;;;;;;5050760;28;20286;-68
2022/01/13 10:10:44;;;;;;;6.05;5.45;;;13.10;64.00;;;;;;5051957;28;20231;-67
2022/01/13 10:13:14;;;;;;;7.15;5.63;;;12.30;67.80;;;;;;5053925;28;20219;-67
2022/01/13 10:18:40;;;;;;;7.90;5.32;;;11.30;73.30;;;;;;5050101;28;20432;-68
2022/01/13 10:21:09;;;;;;;6.72;5.75;;;11.10;75.50;;;;;;5044929;28;20771;-68
2022/01/13 10:23:36;;;;;;;8.68;5.65;;;11.10;75.60;;;;;;5042664;28;20594;-68
2022/01/13 10:26:14;;;;;;;6.10;5.32;;;11.00;75.70;;;;;;5039937;28;20214;-69
2022/01/13 10:28:50;;;;;;;8.65;5.13;;;10.60;76.30;;;;;;5043393;28;20421;-69
2022/01/13 10:31:17;;;;;;;6.40;5.30;;;10.20;76.90;;;;;;5048119;28;20223;-68
2022/01/13 10:33:44;;;;;;;5.05;4.53;;;10.30;76.90;;;;;;5038343;28;20198;-68
2022/01/13 10:36:14;;;;;;;8.63;4.70;;;10.20;76.50;;;;;;5040565;28;20444;-68
2022/01/13 10:39:01;;;;;;;5.32;4.82;;;10.40;76.40;;;;;;5043279;28;20235;-67
2022/01/13 10:41:37;;;;;;;4.82;4.43;;;10.50;74.40;;;;;;5045520;28;20218;-69
2022/01/13 10:44:18;;;;;;;5.07;3.88;;;10.50;73.30;;;;;;5046205;28;20194;-69
2022/01/13 10:47:01;;;;;;;4.50;4.10;;;10.60;72.80;;;;;;5046603;28;20824;-68
2022/01/13 10:49:33;;;;;;;4.20;3.67;;;10.70;72.50;;;;;;5042686;28;20734;-69
2022/01/13 10:52:24;;;;;;;3.88;3.58;;;10.90;73.10;;;;;;5046237;28;20226;-70
2022/01/13 10:54:53;;;;;;;4.13;3.72;;;10.70;72.10;;;;;;5040842;28;20213;-74
2022/01/13 10:57:24;;;;;;;4.78;4.38;;;10.60;72.70;;;;;;5048945;28;20218;-69
2022/01/13 10:59:51;;;;;;;6.00;4.20;;;10.80;72.90;;;;;;5051226;28;20223;-69
2022/01/13 11:02:19;;;;;;;5.45;4.30;;;11.00;72.00;;;;;;5043584;28;20284;-72
2022/01/13 11:04:46;;;;;;;4.10;3.70;;;10.90;71.80;;;;;;5044281;28;20703;-71
2022/01/13 11:07:15;;;;;;;4.32;3.85;;;10.80;71.80;;;;;;5047808;28;20214;-71
2022/01/13 11:09:43;;;;;;;4.47;3.80;;;11.00;72.40;;;;;;5050382;28;20845;-72
2022/01/13 11:12:13;;;;;;;5.63;4.30;;;10.90;72.10;;;;;;5050148;28;20593;-72
2022/01/13 11:14:43;;;;;;;4.32;3.92;;;10.90;72.20;;;;;;5044879;28;20201;-73
2022/01/13 11:17:11;;;;;;;6.72;3.95;;;10.70;72.20;;;;;;5055651;28;20561;-70
2022/01/13 11:19:41;;;;;;;4.13;3.72;;;10.80;72.50;;;;;;5042097;28;20234;-72
2022/01/13 11:22:10;;;;;;;4.82;4.10;;;10.50;72.50;;;;;;5046285;28;20333;-70
2022/01/13 11:24:39;;;;;;;5.28;3.53;;;10.40;73.30;;;;;;5045288;28;20244;-71
2022/01/13 11:27:07;;;;;;;6.15;3.80;;;10.60;73.40;;;;;;5043837;28;20732;-71
2022/01/13 11:29:35;;;;;;;4.38;3.85;;;10.40;73.70;;;;;;5046178;28;20199;-75
2022/01/13 11:32:07;;;;;;;4.38;3.97;;;10.60;73.70;;;;;;5044786;28;20528;-72
2022/01/13 11:34:35;;;;;;;5.75;4.57;;;10.70;74.30;;;;;;5044418;28;20673;-72
2022/01/13 11:37:02;;;;;;;6.60;4.80;;;10.60;73.80;;;;;;5039088;28;20219;-71
2022/01/13 11:39:38;;;;;;;8.95;4.30;;;10.20;74.20;;;;;;5044078;28;20220;-71
2022/01/13 11:42:07;;;;;;;8.65;4.68;;;9.80;76.30;;;;;;5044290;28;20233;-70
2022/01/13 11:44:35;;;;;;;6.53;4.95;;;9.80;76.60;;;;;;5050919;28;20268;-72
2022/01/13 11:47:16;;;;;;;7.20;4.35;;;9.70;76.30;;;;;;5045987;28;20214;-70
2022/01/13 11:49:54;;;;;;;5.35;4.20;;;9.80;76.30;;;;;;5046206;28;20281;-70
2022/01/13 11:52:41;;;;;;;5.32;4.28;;;9.80;76.70;;;;;;5041888;28;20291;-73
2022/01/13 11:55:29;;;;;;;4.43;4.03;;;10.20;76.30;;;;;;5042220;28;20623;-70
2022/01/13 11:58:11;;;;;;;4.68;4.15;;;10.60;75.60;;;;;;5034734;28;20288;-71
2022/01/13 12:00:40;;;;;;;5.43;4.95;;;10.70;75.80;;;;;;5043564;28;20308;-72
2022/01/13 12:03:24;;;;;;;5.90;4.40;;;10.70;75.60;;;;;;5045630;28;20209;-75
2022/01/13 12:05:52;;;;;;;6.28;4.25;;;10.50;75.70;;;;;;5039482;28;20198;-71
2022/01/13 12:08:46;;;;;;;5.57;4.93;;;10.40;74.70;;;;;;5043216;28;20191;-69
2022/01/13 12:11:41;;;;;;;4.63;4.03;;;9.90;75.90;;;;;;5043725;28;20229;-69
2022/01/13 12:14:45;;;;;;;5.25;4.75;;;9.90;76.90;;;;;;5051327;28;20190;-71
2022/01/13 12:17:24;;;;;;;5.32;4.70;;;10.20;76.70;;;;;;5044499;28;20318;-72
2022/01/13 12:20:00;;;;;;;5.35;4.80;;;10.50;76.40;;;;;;5046601;28;20267;-71
2022/01/13 12:22:51;;;;;;;5.57;4.78;;;10.60;76.20;;;;;;5049145;28;20218;-70
2022/01/13 12:25:20;;;;;;;5.43;4.50;;;11.00;76.80;;;;;;5046556;28;20622;-71
2022/01/13 12:27:50;;;;;;;5.57;4.78;;;11.20;75.90;;;;;;5045522;28;20762;-70
2022/01/13 12:30:19;;;;;;;5.88;4.30;;;11.30;76.50;;;;;;5044332;28;20225;-71
2022/01/13 12:32:48;;;;;;;4.65;4.15;;;11.30;75.50;;;;;;5046145;28;20606;-69
2022/01/13 12:35:30;;;;;;;8.25;4.53;;;11.20;75.60;;;;;;5041064;28;20199;-70
2022/01/13 12:38:03;;;;;;;6.32;4.35;;;11.00;75.60;;;;;;5050795;28;20229;-70
2022/01/13 12:40:39;;;;;;;6.05;4.55;;;11.10;75.70;;;;;;5046537;28;20618;-72
2022/01/13 12:43:50;;;;;;;5.25;4.75;;;10.90;75.20;;;;;;5041028;28;20750;-70
2022/01/13 12:46:19;;;;;;;5.65;4.40;;;10.80;76.20;;;;;;5044039;28;20210;-71
2022/01/13 12:48:49;;;;;;;7.32;3.72;;;10.70;76.80;;;;;;5048760;28;20210;-70
2022/01/13 12:51:21;;;;;;;6.32;4.40;;;10.60;76.20;;;;;;5042832;28;20295;-72
2022/01/13 12:53:49;;;;;;;4.10;3.70;;;10.50;76.40;;;;;;5042695;28;20202;-70
2022/01/13 12:56:19;;;;;;;4.65;3.97;;;10.40;76.30;;;;;;5042906;28;20806;-70
2022/01/13 12:58:48;;;;;;;4.35;3.90;;;10.30;76.20;;;;;;5047542;28;20206;-69
2022/01/13 13:01:19;;;;;;;3.67;3.38;;;10.30;76.40;;;;;;5045338;28;20237;-68
2022/01/13 13:03:59;;;;;;;3.75;3.40;;;10.50;76.10;;;;;;5045818;28;20203;-71
2022/01/13 13:06:28;;;;;;;7.00;4.20;;;10.80;76.20;;;;;;5043189;28;20346;-69
2022/01/13 13:09:04;;;;;;;4.60;3.88;;;10.90;76.40;;;;;;5037018;28;20665;-69
2022/01/13 13:11:31;;;;;;;4.68;3.63;;;11.10;75.70;;;;;;5038035;28;20623;-70
2022/01/13 13:13:59;;;;;;;5.78;3.45;;;11.30;75.40;;;;;;5043032;28;20211;-72
2022/01/13 13:16:26;;;;;;;4.05;3.65;;;11.40;75.10;;;;;;5038511;28;20288;-74
2022/01/13 13:18:53;;;;;;;4.50;4.10;;;11.10;74.90;;;;;;5041858;28;20207;-70
2022/01/13 13:23:55;;;;;;;5.43;4.03;;;10.80;75.80;;;;;;5038048;28;20215;-72
2022/01/13 13:26:22;;;;;;;4.65;4.25;;;10.80;76.10;;;;;;5039680;28;20567;-72
2022/01/13 13:28:51;;;;;;;5.78;4.07;;;10.70;76.20;;;;;;5045799;28;20664;-73
2022/01/13 13:31:20;;;;;;;4.57;4.18;;;10.40;76.20;;;;;;5047370;28;20250;-72